WITT/BTJ METAR and TAF weather

Enter ICAO airport designator
Station Type Date Time Source
WITT METAR UTC NOAA

Error!


Station Type Date Time Source
WITT Decoded METAR UTC NOAA

Error!

Station Type Date Time Source
WITT TAF 2019/08/25 18:00 UTC NOAA

TAF WITT 251700Z 2518/2618 15005KT 9999 SCT020
BECMG 2518/2520 VRB05KT

Example: see airport list